sensor_id;sensor_type;location;lat;lon;timestamp;temperature;humidity
17066;DHT22;23120;52.336;21.182;2022-12-22T00:01:58;9.60;67.80
17066;DHT22;23120;52.336;21.182;2022-12-22T00:04:45;9.60;67.80
17066;DHT22;23120;52.336;21.182;2022-12-22T00:07:30;9.70;67.90
17066;DHT22;23120;52.336;21.182;2022-12-22T00:10:14;9.60;67.90
17066;DHT22;23120;52.336;21.182;2022-12-22T00:12:58;9.60;68.10
17066;DHT22;23120;52.336;21.182;2022-12-22T00:15:43;9.60;68.20
17066;DHT22;23120;52.336;21.182;2022-12-22T00:18:29;9.60;68.30
17066;DHT22;23120;52.336;21.182;2022-12-22T00:21:13;9.60;68.40
17066;DHT22;23120;52.336;21.182;2022-12-22T00:23:58;9.60;68.20
17066;DHT22;23120;52.336;21.182;2022-12-22T00:26:43;9.60;68.40
17066;DHT22;23120;52.336;21.182;2022-12-22T00:29:34;9.60;68.20
17066;DHT22;23120;52.336;21.182;2022-12-22T00:32:19;9.60;68.30
17066;DHT22;23120;52.336;21.182;2022-12-22T00:35:11;9.60;68.30
17066;DHT22;23120;52.336;21.182;2022-12-22T00:37:55;9.60;68.30
17066;DHT22;23120;52.336;21.182;2022-12-22T00:40:40;9.60;68.40
17066;DHT22;23120;52.336;21.182;2022-12-22T00:43:24;9.60;68.40
17066;DHT22;23120;52.336;21.182;2022-12-22T00:46:10;9.60;68.40
17066;DHT22;23120;52.336;21.182;2022-12-22T00:48:55;9.60;68.40
17066;DHT22;23120;52.336;21.182;2022-12-22T00:51:41;9.60;68.30
17066;DHT22;23120;52.336;21.182;2022-12-22T00:54:25;9.60;68.30
17066;DHT22;23120;52.336;21.182;2022-12-22T00:57:15;9.60;68.50
17066;DHT22;23120;52.336;21.182;2022-12-22T01:00:00;9.60;68.70
17066;DHT22;23120;52.336;21.182;2022-12-22T01:02:45;9.60;68.70
17066;DHT22;23120;52.336;21.182;2022-12-22T01:05:29;9.60;68.60
17066;DHT22;23120;52.336;21.182;2022-12-22T01:08:15;9.60;68.50
17066;DHT22;23120;52.336;21.182;2022-12-22T01:11:00;9.60;68.60
17066;DHT22;23120;52.336;21.182;2022-12-22T01:13:44;9.60;68.70
17066;DHT22;23120;52.336;21.182;2022-12-22T01:16:28;9.60;68.60
17066;DHT22;23120;52.336;21.182;2022-12-22T01:19:13;9.60;68.50
17066;DHT22;23120;52.336;21.182;2022-12-22T01:21:57;9.60;68.60
17066;DHT22;23120;52.336;21.182;2022-12-22T01:24:43;9.60;68.70
17066;DHT22;23120;52.336;21.182;2022-12-22T01:27:28;9.60;68.70
17066;DHT22;23120;52.336;21.182;2022-12-22T01:30:13;9.60;68.80
17066;DHT22;23120;52.336;21.182;2022-12-22T01:32:57;9.60;68.70
17066;DHT22;23120;52.336;21.182;2022-12-22T01:35:41;9.60;68.70
17066;DHT22;23120;52.336;21.182;2022-12-22T01:38:26;9.60;68.60
17066;DHT22;23120;52.336;21.182;2022-12-22T01:41:14;9.60;68.60
17066;DHT22;23120;52.336;21.182;2022-12-22T01:44:00;9.60;68.60
17066;DHT22;23120;52.336;21.182;2022-12-22T01:46:45;9.60;68.50
17066;DHT22;23120;52.336;21.182;2022-12-22T01:49:33;9.60;68.60
17066;DHT22;23120;52.336;21.182;2022-12-22T01:52:19;9.60;68.70
17066;DHT22;23120;52.336;21.182;2022-12-22T01:55:11;9.50;68.70
17066;DHT22;23120;52.336;21.182;2022-12-22T01:57:57;9.50;68.70
17066;DHT22;23120;52.336;21.182;2022-12-22T02:00:44;9.60;68.70
17066;DHT22;23120;52.336;21.182;2022-12-22T02:03:28;9.60;68.60
17066;DHT22;23120;52.336;21.182;2022-12-22T02:06:18;9.60;68.60
17066;DHT22;23120;52.336;21.182;2022-12-22T02:09:23;9.60;68.70
17066;DHT22;23120;52.336;21.182;2022-12-22T02:12:16;9.60;68.70
17066;DHT22;23120;52.336;21.182;2022-12-22T02:15:10;9.60;68.70
17066;DHT22;23120;52.336;21.182;2022-12-22T02:18:04;9.50;68.90
17066;DHT22;23120;52.336;21.182;2022-12-22T02:20:53;9.50;68.70
17066;DHT22;23120;52.336;21.182;2022-12-22T02:23:55;9.50;68.80
17066;DHT22;23120;52.336;21.182;2022-12-22T02:26:48;9.50;68.90
17066;DHT22;23120;52.336;21.182;2022-12-22T02:29:36;9.50;69.00
17066;DHT22;23120;52.336;21.182;2022-12-22T02:32:22;9.50;68.90
17066;DHT22;23120;52.336;21.182;2022-12-22T02:35:10;9.60;68.80
17066;DHT22;23120;52.336;21.182;2022-12-22T02:37:59;9.50;69.00
17066;DHT22;23120;52.336;21.182;2022-12-22T02:40:51;9.60;69.20
17066;DHT22;23120;52.336;21.182;2022-12-22T02:43:51;9.60;69.30
17066;DHT22;23120;52.336;21.182;2022-12-22T02:46:43;9.60;69.20
17066;DHT22;23120;52.336;21.182;2022-12-22T02:49:36;9.60;69.30
17066;DHT22;23120;52.336;21.182;2022-12-22T02:52:27;9.60;69.50
17066;DHT22;23120;52.336;21.182;2022-12-22T02:55:13;9.60;69.60
17066;DHT22;23120;52.336;21.182;2022-12-22T02:57:58;9.60;69.50
17066;DHT22;23120;52.336;21.182;2022-12-22T03:00:44;9.60;69.70
17066;DHT22;23120;52.336;21.182;2022-12-22T03:03:28;9.70;69.90
17066;DHT22;23120;52.336;21.182;2022-12-22T03:06:13;9.70;69.90
17066;DHT22;23120;52.336;21.182;2022-12-22T03:08:57;9.70;69.90
17066;DHT22;23120;52.336;21.182;2022-12-22T03:11:42;9.70;69.70
17066;DHT22;23120;52.336;21.182;2022-12-22T03:14:26;9.80;69.80
17066;DHT22;23120;52.336;21.182;2022-12-22T03:17:12;9.80;69.90
17066;DHT22;23120;52.336;21.182;2022-12-22T03:19:57;9.80;69.90
17066;DHT22;23120;52.336;21.182;2022-12-22T03:22:41;9.80;69.70
17066;DHT22;23120;52.336;21.182;2022-12-22T03:25:25;9.90;69.70
17066;DHT22;23120;52.336;21.182;2022-12-22T03:28:10;9.80;69.60
17066;DHT22;23120;52.336;21.182;2022-12-22T03:30:37;9.80;69.70
17066;DHT22;23120;52.336;21.182;2022-12-22T03:33:05;9.80;69.80
17066;DHT22;23120;52.336;21.182;2022-12-22T03:35:32;9.80;69.80
17066;DHT22;23120;52.336;21.182;2022-12-22T03:37:59;9.90;69.70
17066;DHT22;23120;52.336;21.182;2022-12-22T03:40:28;9.90;69.60
17066;DHT22;23120;52.336;21.182;2022-12-22T03:42:55;9.90;69.60
17066;DHT22;23120;52.336;21.182;2022-12-22T03:45:39;9.90;69.50
17066;DHT22;23120;52.336;21.182;2022-12-22T03:48:26;9.90;69.60
17066;DHT22;23120;52.336;21.182;2022-12-22T03:50:52;9.90;69.50
17066;DHT22;23120;52.336;21.182;2022-12-22T03:53:19;9.90;69.60
17066;DHT22;23120;52.336;21.182;2022-12-22T03:55:46;9.90;69.60
17066;DHT22;23120;52.336;21.182;2022-12-22T03:58:13;10.00;68.40
17066;DHT22;23120;52.336;21.182;2022-12-22T04:00:39;10.00;68.10
17066;DHT22;23120;52.336;21.182;2022-12-22T04:03:06;10.00;68.10
17066;DHT22;23120;52.336;21.182;2022-12-22T04:05:34;10.00;68.00
17066;DHT22;23120;52.336;21.182;2022-12-22T04:08:01;10.00;68.10
17066;DHT22;23120;52.336;21.182;2022-12-22T04:10:27;10.00;68.00
17066;DHT22;23120;52.336;21.182;2022-12-22T04:13:12;10.00;68.30
17066;DHT22;23120;52.336;21.182;2022-12-22T04:15:39;10.00;68.00
17066;DHT22;23120;52.336;21.182;2022-12-22T04:18:05;10.00;68.10
17066;DHT22;23120;52.336;21.182;2022-12-22T04:20:33;10.00;68.10
17066;DHT22;23120;52.336;21.182;2022-12-22T04:23:00;10.00;68.00
17066;DHT22;23120;52.336;21.182;2022-12-22T04:25:27;10.10;68.10
17066;DHT22;23120;52.336;21.182;2022-12-22T04:27:54;10.10;68.20
17066;DHT22;23120;52.336;21.182;2022-12-22T04:30:21;10.10;68.10
17066;DHT22;23120;52.336;21.182;2022-12-22T04:32:47;10.10;68.90
17066;DHT22;23120;52.336;21.182;2022-12-22T04:35:14;10.10;68.10
17066;DHT22;23120;52.336;21.182;2022-12-22T04:37:42;10.10;68.10
17066;DHT22;23120;52.336;21.182;2022-12-22T04:40:11;10.10;68.10
17066;DHT22;23120;52.336;21.182;2022-12-22T04:42:38;10.10;68.10
17066;DHT22;23120;52.336;21.182;2022-12-22T04:45:05;10.10;68.10
17066;DHT22;23120;52.336;21.182;2022-12-22T04:47:32;10.10;68.10
17066;DHT22;23120;52.336;21.182;2022-12-22T04:49:59;10.10;67.90
17066;DHT22;23120;52.336;21.182;2022-12-22T04:52:26;10.10;67.90
17066;DHT22;23120;52.336;21.182;2022-12-22T04:54:54;10.20;68.00
17066;DHT22;23120;52.336;21.182;2022-12-22T04:57:20;10.20;68.00
17066;DHT22;23120;52.336;21.182;2022-12-22T04:59:47;10.20;68.00
17066;DHT22;23120;52.336;21.182;2022-12-22T05:02:14;10.20;67.70
17066;DHT22;23120;52.336;21.182;2022-12-22T05:04:41;10.20;67.70
17066;DHT22;23120;52.336;21.182;2022-12-22T05:07:07;10.20;67.70
17066;DHT22;23120;52.336;21.182;2022-12-22T05:09:34;10.20;67.70
17066;DHT22;23120;52.336;21.182;2022-12-22T05:12:02;10.20;67.70
17066;DHT22;23120;52.336;21.182;2022-12-22T05:14:50;10.20;67.70
17066;DHT22;23120;52.336;21.182;2022-12-22T05:17:17;10.30;67.60
17066;DHT22;23120;52.336;21.182;2022-12-22T05:19:44;10.20;67.50
17066;DHT22;23120;52.336;21.182;2022-12-22T05:22:10;10.20;67.60
17066;DHT22;23120;52.336;21.182;2022-12-22T05:24:37;10.20;67.70
17066;DHT22;23120;52.336;21.182;2022-12-22T05:27:05;10.20;67.80
17066;DHT22;23120;52.336;21.182;2022-12-22T05:29:32;10.20;67.70
17066;DHT22;23120;52.336;21.182;2022-12-22T05:31:59;10.30;67.80
17066;DHT22;23120;52.336;21.182;2022-12-22T05:34:25;10.30;67.70
17066;DHT22;23120;52.336;21.182;2022-12-22T05:36:52;10.20;67.60
17066;DHT22;23120;52.336;21.182;2022-12-22T05:39:19;10.30;67.60
17066;DHT22;23120;52.336;21.182;2022-12-22T05:41:46;10.20;67.50
17066;DHT22;23120;52.336;21.182;2022-12-22T05:44:14;10.30;67.50
17066;DHT22;23120;52.336;21.182;2022-12-22T05:46:40;10.30;67.40
17066;DHT22;23120;52.336;21.182;2022-12-22T05:49:07;10.30;67.30
17066;DHT22;23120;52.336;21.182;2022-12-22T05:51:34;10.30;68.10
17066;DHT22;23120;52.336;21.182;2022-12-22T05:54:01;10.30;67.20
17066;DHT22;23120;52.336;21.182;2022-12-22T05:56:27;10.30;67.40
17066;DHT22;23120;52.336;21.182;2022-12-22T05:58:54;10.30;67.30
17066;DHT22;23120;52.336;21.182;2022-12-22T06:01:22;10.30;67.50
17066;DHT22;23120;52.336;21.182;2022-12-22T06:03:49;10.30;67.30
17066;DHT22;23120;52.336;21.182;2022-12-22T06:06:15;10.30;67.40
17066;DHT22;23120;52.336;21.182;2022-12-22T06:08:42;10.30;67.20
17066;DHT22;23120;52.336;21.182;2022-12-22T06:11:09;10.30;67.20
17066;DHT22;23120;52.336;21.182;2022-12-22T06:13:36;10.40;67.40
17066;DHT22;23120;52.336;21.182;2022-12-22T06:16:03;10.30;67.20
17066;DHT22;23120;52.336;21.182;2022-12-22T06:18:31;10.30;67.40
17066;DHT22;23120;52.336;21.182;2022-12-22T06:20:57;10.30;67.40
17066;DHT22;23120;52.336;21.182;2022-12-22T06:23:24;10.30;67.30
17066;DHT22;23120;52.336;21.182;2022-12-22T06:25:54;10.30;67.30
17066;DHT22;23120;52.336;21.182;2022-12-22T06:28:22;10.40;67.30
17066;DHT22;23120;52.336;21.182;2022-12-22T06:30:49;10.40;67.20
17066;DHT22;23120;52.336;21.182;2022-12-22T06:33:15;10.40;67.30
17066;DHT22;23120;52.336;21.182;2022-12-22T06:35:43;10.30;67.20
17066;DHT22;23120;52.336;21.182;2022-12-22T06:38:10;10.30;67.20
17066;DHT22;23120;52.336;21.182;2022-12-22T06:40:37;10.30;67.20
17066;DHT22;23120;52.336;21.182;2022-12-22T06:43:04;10.30;67.20
17066;DHT22;23120;52.336;21.182;2022-12-22T06:45:37;10.40;67.10
17066;DHT22;23120;52.336;21.182;2022-12-22T06:48:05;10.40;67.10
17066;DHT22;23120;52.336;21.182;2022-12-22T06:50:32;10.40;67.10
17066;DHT22;23120;52.336;21.182;2022-12-22T06:53:00;10.40;67.10
17066;DHT22;23120;52.336;21.182;2022-12-22T06:55:27;10.40;67.10
17066;DHT22;23120;52.336;21.182;2022-12-22T06:57:54;10.40;67.20
17066;DHT22;23120;52.336;21.182;2022-12-22T07:00:21;10.40;67.10
17066;DHT22;23120;52.336;21.182;2022-12-22T07:02:48;10.40;67.10
17066;DHT22;23120;52.336;21.182;2022-12-22T07:05:15;10.40;67.00
17066;DHT22;23120;52.336;21.182;2022-12-22T07:07:41;10.40;67.00
17066;DHT22;23120;52.336;21.182;2022-12-22T07:10:10;10.40;66.90
17066;DHT22;23120;52.336;21.182;2022-12-22T07:12:37;10.50;66.70
17066;DHT22;23120;52.336;21.182;2022-12-22T07:15:05;10.40;66.60
17066;DHT22;23120;52.336;21.182;2022-12-22T07:17:32;10.40;66.90
17066;DHT22;23120;52.336;21.182;2022-12-22T07:19:58;10.40;66.70
17066;DHT22;23120;52.336;21.182;2022-12-22T07:22:25;10.50;67.40
17066;DHT22;23120;52.336;21.182;2022-12-22T07:24:52;10.40;66.60
17066;DHT22;23120;52.336;21.182;2022-12-22T07:27:20;10.40;66.60
17066;DHT22;23120;52.336;21.182;2022-12-22T07:29:47;10.40;66.60
17066;DHT22;23120;52.336;21.182;2022-12-22T07:32:14;10.40;66.60
17066;DHT22;23120;52.336;21.182;2022-12-22T07:34:41;10.40;66.90
17066;DHT22;23120;52.336;21.182;2022-12-22T07:37:07;10.30;66.80
17066;DHT22;23120;52.336;21.182;2022-12-22T07:39:34;10.30;66.90
17066;DHT22;23120;52.336;21.182;2022-12-22T07:42:01;10.30;67.00
17066;DHT22;23120;52.336;21.182;2022-12-22T07:44:46;10.30;66.90
17066;DHT22;23120;52.336;21.182;2022-12-22T07:47:13;10.30;67.00
17066;DHT22;23120;52.336;21.182;2022-12-22T07:49:40;10.30;67.00
17066;DHT22;23120;52.336;21.182;2022-12-22T07:52:24;10.20;67.00
17066;DHT22;23120;52.336;21.182;2022-12-22T07:54:51;10.20;67.20
17066;DHT22;23120;52.336;21.182;2022-12-22T07:57:18;10.20;67.20
17066;DHT22;23120;52.336;21.182;2022-12-22T07:59:44;10.20;67.10
17066;DHT22;23120;52.336;21.182;2022-12-22T08:02:12;10.20;67.20
17066;DHT22;23120;52.336;21.182;2022-12-22T08:04:39;10.30;67.20
17066;DHT22;23120;52.336;21.182;2022-12-22T08:07:06;10.30;67.10
17066;DHT22;23120;52.336;21.182;2022-12-22T08:09:32;10.30;67.20
17066;DHT22;23120;52.336;21.182;2022-12-22T08:11:59;10.30;67.40
17066;DHT22;23120;52.336;21.182;2022-12-22T08:14:26;10.30;67.30
17066;DHT22;23120;52.336;21.182;2022-12-22T08:16:53;10.30;67.40
17066;DHT22;23120;52.336;21.182;2022-12-22T08:19:21;10.20;67.40
17066;DHT22;23120;52.336;21.182;2022-12-22T08:21:47;10.20;67.50
17066;DHT22;23120;52.336;21.182;2022-12-22T08:26:25;9.30;73.40
17066;DHT22;23120;52.336;21.182;2022-12-22T08:28:56;10.80;67.70
17066;DHT22;23120;52.336;21.182;2022-12-22T08:31:26;11.80;63.80
17066;DHT22;23120;52.336;21.182;2022-12-22T08:33:55;12.40;61.00
17066;DHT22;23120;52.336;21.182;2022-12-22T08:36:22;12.90;58.80
17066;DHT22;23120;52.336;21.182;2022-12-22T08:38:50;13.30;57.70
17066;DHT22;23120;52.336;21.182;2022-12-22T08:41:17;13.60;56.60
17066;DHT22;23120;52.336;21.182;2022-12-22T08:44:06;13.80;55.70
17066;DHT22;23120;52.336;21.182;2022-12-22T08:46:32;14.00;54.90
17066;DHT22;23120;52.336;21.182;2022-12-22T08:49:00;14.20;54.30
17066;DHT22;23120;52.336;21.182;2022-12-22T08:51:27;14.30;53.70
17066;DHT22;23120;52.336;21.182;2022-12-22T08:53:54;14.40;53.50
17066;DHT22;23120;52.336;21.182;2022-12-22T08:56:21;14.40;53.10
17066;DHT22;23120;52.336;21.182;2022-12-22T08:58:47;14.40;52.30
17066;DHT22;23120;52.336;21.182;2022-12-22T09:01:18;14.50;52.70
17066;DHT22;23120;52.336;21.182;2022-12-22T09:03:48;14.60;52.60
17066;DHT22;23120;52.336;21.182;2022-12-22T09:06:16;14.60;52.40
17066;DHT22;23120;52.336;21.182;2022-12-22T09:08:43;14.60;52.90
17066;DHT22;23120;52.336;21.182;2022-12-22T09:11:10;14.60;52.00
17066;DHT22;23120;52.336;21.182;2022-12-22T09:13:37;14.60;52.00
17066;DHT22;23120;52.336;21.182;2022-12-22T09:16:04;14.70;51.80
17066;DHT22;23120;52.336;21.182;2022-12-22T09:18:33;14.70;52.30
17066;DHT22;23120;52.336;21.182;2022-12-22T09:21:00;14.70;51.70
17066;DHT22;23120;52.336;21.182;2022-12-22T09:23:30;14.70;51.60
17066;DHT22;23120;52.336;21.182;2022-12-22T09:25:57;14.70;51.70
17066;DHT22;23120;52.336;21.182;2022-12-22T09:28:24;14.80;51.70
17066;DHT22;23120;52.336;21.182;2022-12-22T09:30:51;14.60;51.60
17066;DHT22;23120;52.336;21.182;2022-12-22T09:33:18;14.60;51.90
17066;DHT22;23120;52.336;21.182;2022-12-22T09:35:46;14.60;51.70
17066;DHT22;23120;52.336;21.182;2022-12-22T09:38:13;14.60;51.70
17066;DHT22;23120;52.336;21.182;2022-12-22T09:40:40;14.70;51.70
17066;DHT22;23120;52.336;21.182;2022-12-22T09:43:09;14.60;51.70
17066;DHT22;23120;52.336;21.182;2022-12-22T09:45:39;14.60;51.70
17066;DHT22;23120;52.336;21.182;2022-12-22T09:48:08;14.60;51.70
17066;DHT22;23120;52.336;21.182;2022-12-22T09:50:38;14.60;51.60
17066;DHT22;23120;52.336;21.182;2022-12-22T09:53:12;14.60;52.20
17066;DHT22;23120;52.336;21.182;2022-12-22T09:55:45;14.60;51.60
17066;DHT22;23120;52.336;21.182;2022-12-22T09:58:18;14.60;52.20
17066;DHT22;23120;52.336;21.182;2022-12-22T10:00:47;14.60;50.70
17066;DHT22;23120;52.336;21.182;2022-12-22T10:03:28;14.70;51.70
17066;DHT22;23120;52.336;21.182;2022-12-22T10:06:03;14.60;51.60
17066;DHT22;23120;52.336;21.182;2022-12-22T10:08:34;14.60;51.60
17066;DHT22;23120;52.336;21.182;2022-12-22T10:11:01;14.60;51.60
17066;DHT22;23120;52.336;21.182;2022-12-22T10:13:28;14.60;51.60
17066;DHT22;23120;52.336;21.182;2022-12-22T10:15:58;14.60;51.60
17066;DHT22;23120;52.336;21.182;2022-12-22T10:18:26;14.60;51.60
17066;DHT22;23120;52.336;21.182;2022-12-22T10:21:08;14.60;51.60
17066;DHT22;23120;52.336;21.182;2022-12-22T10:23:39;14.60;51.60
17066;DHT22;23120;52.336;21.182;2022-12-22T10:26:10;14.60;51.60
17066;DHT22;23120;52.336;21.182;2022-12-22T10:28:42;14.60;51.60
17066;DHT22;23120;52.336;21.182;2022-12-22T10:31:16;14.60;51.60
17066;DHT22;23120;52.336;21.182;2022-12-22T10:33:46;14.60;51.60
17066;DHT22;23120;52.336;21.182;2022-12-22T10:36:14;14.60;51.60
17066;DHT22;23120;52.336;21.182;2022-12-22T10:38:56;14.60;51.60
17066;DHT22;23120;52.336;21.182;2022-12-22T10:41:26;14.60;51.60
17066;DHT22;23120;52.336;21.182;2022-12-22T10:43:55;14.50;51.60
17066;DHT22;23120;52.336;21.182;2022-12-22T10:46:31;14.50;51.50
17066;DHT22;23120;52.336;21.182;2022-12-22T10:49:12;14.60;51.60
17066;DHT22;23120;52.336;21.182;2022-12-22T10:51:44;14.50;51.70
17066;DHT22;23120;52.336;21.182;2022-12-22T10:54:28;14.50;51.50
17066;DHT22;23120;52.336;21.182;2022-12-22T10:57:05;14.50;51.70
17066;DHT22;23120;52.336;21.182;2022-12-22T10:59:33;14.50;51.70
17066;DHT22;23120;52.336;21.182;2022-12-22T11:02:30;14.50;51.70
17066;DHT22;23120;52.336;21.182;2022-12-22T11:05:03;14.50;51.80
17066;DHT22;23120;52.336;21.182;2022-12-22T11:07:32;14.50;51.90
17066;DHT22;23120;52.336;21.182;2022-12-22T11:10:01;14.50;51.60
17066;DHT22;23120;52.336;21.182;2022-12-22T11:12:37;14.50;51.80
17066;DHT22;23120;52.336;21.182;2022-12-22T11:15:13;14.50;51.80
17066;DHT22;23120;52.336;21.182;2022-12-22T11:17:50;14.50;51.80
17066;DHT22;23120;52.336;21.182;2022-12-22T11:20:34;14.50;52.20
17066;DHT22;23120;52.336;21.182;2022-12-22T11:23:07;14.50;51.80
17066;DHT22;23120;52.336;21.182;2022-12-22T11:25:43;14.50;51.60
17066;DHT22;23120;52.336;21.182;2022-12-22T11:28:23;14.40;51.80
17066;DHT22;23120;52.336;21.182;2022-12-22T11:31:13;14.60;51.90
17066;DHT22;23120;52.336;21.182;2022-12-22T11:33:56;14.40;51.90
17066;DHT22;23120;52.336;21.182;2022-12-22T11:36:32;14.50;51.60
17066;DHT22;23120;52.336;21.182;2022-12-22T11:39:06;14.40;51.70
17066;DHT22;23120;52.336;21.182;2022-12-22T11:41:55;14.40;51.90
17066;DHT22;23120;52.336;21.182;2022-12-22T11:44:38;14.40;51.90
17066;DHT22;23120;52.336;21.182;2022-12-22T11:47:13;14.40;51.90
17066;DHT22;23120;52.336;21.182;2022-12-22T11:50:14;14.40;51.90
17066;DHT22;23120;52.336;21.182;2022-12-22T11:52:55;14.40;51.90
17066;DHT22;23120;52.336;21.182;2022-12-22T11:55:28;14.40;52.00
17066;DHT22;23120;52.336;21.182;2022-12-22T11:58:13;14.40;51.90
17066;DHT22;23120;52.336;21.182;2022-12-22T12:00:51;14.40;52.10
17066;DHT22;23120;52.336;21.182;2022-12-22T12:03:52;14.40;52.10
17066;DHT22;23120;52.336;21.182;2022-12-22T12:09:28;14.40;52.10
17066;DHT22;23120;52.336;21.182;2022-12-22T12:12:03;14.40;52.20
17066;DHT22;23120;52.336;21.182;2022-12-22T12:14:37;14.40;52.20
17066;DHT22;23120;52.336;21.182;2022-12-22T12:17:12;14.40;52.20
17066;DHT22;23120;52.336;21.182;2022-12-22T12:20:02;14.40;52.80
17066;DHT22;23120;52.336;21.182;2022-12-22T12:22:41;14.40;52.20
17066;DHT22;23120;52.336;21.182;2022-12-22T12:25:24;14.40;52.30
17066;DHT22;23120;52.336;21.182;2022-12-22T12:28:03;14.40;52.30
17066;DHT22;23120;52.336;21.182;2022-12-22T12:30:39;14.40;52.20
17066;DHT22;23120;52.336;21.182;2022-12-22T12:33:12;14.50;52.20
17066;DHT22;23120;52.336;21.182;2022-12-22T12:35:48;14.50;52.20
17066;DHT22;23120;52.336;21.182;2022-12-22T12:38:23;14.50;52.20
17066;DHT22;23120;52.336;21.182;2022-12-22T12:40:57;14.50;52.10
17066;DHT22;23120;52.336;21.182;2022-12-22T12:43:25;14.50;52.20
17066;DHT22;23120;52.336;21.182;2022-12-22T12:45:53;14.50;52.20
17066;DHT22;23120;52.336;21.182;2022-12-22T12:48:39;14.50;52.20
17066;DHT22;23120;52.336;21.182;2022-12-22T12:51:46;14.50;52.20
17066;DHT22;23120;52.336;21.182;2022-12-22T12:54:35;14.50;52.20
17066;DHT22;23120;52.336;21.182;2022-12-22T12:57:10;14.60;52.70
17066;DHT22;23120;52.336;21.182;2022-12-22T12:59:47;14.70;52.30
17066;DHT22;23120;52.336;21.182;2022-12-22T13:05:29;14.90;51.60
17066;DHT22;23120;52.336;21.182;2022-12-22T13:08:06;15.00;51.40
17066;DHT22;23120;52.336;21.182;2022-12-22T13:10:35;15.10;51.20
17066;DHT22;23120;52.336;21.182;2022-12-22T13:13:03;15.20;51.10
17066;DHT22;23120;52.336;21.182;2022-12-22T13:15:31;15.30;51.60
17066;DHT22;23120;52.336;21.182;2022-12-22T13:18:01;15.40;50.90
17066;DHT22;23120;52.336;21.182;2022-12-22T13:20:30;15.50;50.70
17066;DHT22;23120;52.336;21.182;2022-12-22T13:22:59;15.50;50.70
17066;DHT22;23120;52.336;21.182;2022-12-22T13:25:38;15.60;50.50
17066;DHT22;23120;52.336;21.182;2022-12-22T13:28:05;15.70;50.40
17066;DHT22;23120;52.336;21.182;2022-12-22T13:30:36;15.70;50.30
17066;DHT22;23120;52.336;21.182;2022-12-22T13:33:10;15.80;50.20
17066;DHT22;23120;52.336;21.182;2022-12-22T13:35:38;15.80;50.20
17066;DHT22;23120;52.336;21.182;2022-12-22T13:38:25;15.80;50.00
17066;DHT22;23120;52.336;21.182;2022-12-22T13:40:54;15.90;50.10
17066;DHT22;23120;52.336;21.182;2022-12-22T13:43:20;15.80;50.00
17066;DHT22;23120;52.336;21.182;2022-12-22T13:45:48;15.80;50.10
17066;DHT22;23120;52.336;21.182;2022-12-22T13:48:19;15.70;50.10
17066;DHT22;23120;52.336;21.182;2022-12-22T13:50:48;15.70;50.20
17066;DHT22;23120;52.336;21.182;2022-12-22T13:53:19;15.60;50.20
17066;DHT22;23120;52.336;21.182;2022-12-22T13:55:48;15.60;50.20
17066;DHT22;23120;52.336;21.182;2022-12-22T13:58:24;15.60;50.40
17066;DHT22;23120;52.336;21.182;2022-12-22T14:01:00;15.50;50.40
17066;DHT22;23120;52.336;21.182;2022-12-22T14:03:29;15.50;50.50
17066;DHT22;23120;52.336;21.182;2022-12-22T14:05:55;15.40;50.50
17066;DHT22;23120;52.336;21.182;2022-12-22T14:08:22;15.40;50.60
17066;DHT22;23120;52.336;21.182;2022-12-22T14:10:50;15.40;50.60
17066;DHT22;23120;52.336;21.182;2022-12-22T14:13:21;15.40;50.60
17066;DHT22;23120;52.336;21.182;2022-12-22T14:15:58;15.40;50.60
17066;DHT22;23120;52.336;21.182;2022-12-22T14:18:26;15.40;50.30
17066;DHT22;23120;52.336;21.182;2022-12-22T14:20:54;15.40;50.60
17066;DHT22;23120;52.336;21.182;2022-12-22T14:23:24;15.40;50.50
17066;DHT22;23120;52.336;21.182;2022-12-22T14:25:52;15.40;50.40
17066;DHT22;23120;52.336;21.182;2022-12-22T14:28:24;15.50;50.40
17066;DHT22;23120;52.336;21.182;2022-12-22T14:30:53;15.50;50.30
17066;DHT22;23120;52.336;21.182;2022-12-22T14:33:29;15.60;50.30
17066;DHT22;23120;52.336;21.182;2022-12-22T14:36:12;15.60;50.20
17066;DHT22;23120;52.336;21.182;2022-12-22T14:38:41;15.60;50.10
17066;DHT22;23120;52.336;21.182;2022-12-22T14:41:10;15.60;50.00
17066;DHT22;23120;52.336;21.182;2022-12-22T14:43:58;15.70;50.10
17066;DHT22;23120;52.336;21.182;2022-12-22T14:46:25;15.60;49.10
17066;DHT22;23120;52.336;21.182;2022-12-22T14:48:52;15.60;50.00
17066;DHT22;23120;52.336;21.182;2022-12-22T14:51:20;15.60;50.00
17066;DHT22;23120;52.336;21.182;2022-12-22T14:53:49;15.60;50.10
17066;DHT22;23120;52.336;21.182;2022-12-22T14:56:16;15.60;50.20
17066;DHT22;23120;52.336;21.182;2022-12-22T14:58:44;15.50;50.20
17066;DHT22;23120;52.336;21.182;2022-12-22T15:01:15;15.50;50.30
17066;DHT22;23120;52.336;21.182;2022-12-22T15:03:43;15.40;50.30
17066;DHT22;23120;52.336;21.182;2022-12-22T15:06:32;15.40;50.50
17066;DHT22;23120;52.336;21.182;2022-12-22T15:09:24;15.40;50.60
17066;DHT22;23120;52.336;21.182;2022-12-22T15:11:54;15.30;50.60
17066;DHT22;23120;52.336;21.182;2022-12-22T15:14:23;15.40;50.60
17066;DHT22;23120;52.336;21.182;2022-12-22T15:16:54;15.40;50.60
17066;DHT22;23120;52.336;21.182;2022-12-22T15:19:21;15.40;50.50
17066;DHT22;23120;52.336;21.182;2022-12-22T15:21:50;15.50;50.50
17066;DHT22;23120;52.336;21.182;2022-12-22T15:24:17;15.50;50.30
17066;DHT22;23120;52.336;21.182;2022-12-22T15:26:45;15.60;50.20
17066;DHT22;23120;52.336;21.182;2022-12-22T15:29:12;15.60;50.10
17066;DHT22;23120;52.336;21.182;2022-12-22T15:31:40;15.70;50.10
17066;DHT22;23120;52.336;21.182;2022-12-22T15:34:12;15.80;50.10
17066;DHT22;23120;52.336;21.182;2022-12-22T15:36:39;15.80;50.00
17066;DHT22;23120;52.336;21.182;2022-12-22T15:39:15;15.80;49.80
17066;DHT22;23120;52.336;21.182;2022-12-22T15:41:42;15.90;49.70
17066;DHT22;23120;52.336;21.182;2022-12-22T15:44:09;16.00;49.80
17066;DHT22;23120;52.336;21.182;2022-12-22T15:46:38;16.00;49.60
17066;DHT22;23120;52.336;21.182;2022-12-22T15:49:06;16.00;49.60
17066;DHT22;23120;52.336;21.182;2022-12-22T15:51:36;16.10;49.60
17066;DHT22;23120;52.336;21.182;2022-12-22T15:54:03;16.10;49.40
17066;DHT22;23120;52.336;21.182;2022-12-22T15:56:31;16.10;49.30
17066;DHT22;23120;52.336;21.182;2022-12-22T15:58:59;16.10;49.30
17066;DHT22;23120;52.336;21.182;2022-12-22T16:01:26;16.10;49.90
17066;DHT22;23120;52.336;21.182;2022-12-22T16:03:53;16.10;49.20
17066;DHT22;23120;52.336;21.182;2022-12-22T16:06:20;16.20;49.20
17066;DHT22;23120;52.336;21.182;2022-12-22T16:08:49;16.20;49.80
17066;DHT22;23120;52.336;21.182;2022-12-22T16:11:17;16.20;49.20